createdAt,value
2023-03-20T00:00:29.281Z,101112.47
2023-03-20T00:05:32.431Z,101124.22
2023-03-20T00:10:40.673Z,101106.47
2023-03-20T00:15:44.668Z,101142.66
2023-03-20T00:20:47.799Z,101108.94
2023-03-20T00:25:50.642Z,101117.34
2023-03-20T00:30:52.714Z,101110.16
2023-03-20T00:35:54.875Z,101132.25
2023-03-20T00:40:57.056Z,101131.44
2023-03-20T00:45:59.226Z,101110.41
2023-03-20T00:51:01.933Z,101108.00
2023-03-20T00:56:04.781Z,101103.97
2023-03-20T01:01:07.233Z,101106.34
2023-03-20T01:06:10.221Z,101077.88
2023-03-20T01:11:14.631Z,101100.69
2023-03-20T01:16:25.625Z,101065.06
2023-03-20T01:21:27.822Z,101086.84
2023-03-20T01:26:36.959Z,101075.53
2023-03-20T01:31:39.183Z,101063.00
2023-03-20T01:36:49.494Z,101075.06
2023-03-20T01:41:53.439Z,101071.47
2023-03-20T01:46:55.900Z,101087.34
2023-03-20T01:51:58.382Z,101083.00
2023-03-20T01:57:01.555Z,101087.06
2023-03-20T02:02:06.173Z,101084.22
2023-03-20T02:07:11.341Z,101066.19
2023-03-20T02:12:13.780Z,101083.91
2023-03-20T02:17:16.444Z,101067.78
2023-03-20T02:22:34.365Z,101073.97
2023-03-20T02:28:08.489Z,101062.16
2023-03-20T02:33:29.126Z,101069.72
2023-03-20T02:38:49.584Z,101069.22
2023-03-20T02:44:03.492Z,101062.56
2023-03-20T02:49:40.805Z,101067.13
2023-03-20T02:55:29.891Z,101071.69
2023-03-20T03:00:39.941Z,101053.41
2023-03-20T03:05:51.436Z,101057.31
2023-03-20T03:10:58.384Z,101073.41
2023-03-20T03:16:06.491Z,101046.44
2023-03-20T03:21:11.398Z,101043.84
2023-03-20T03:26:21.734Z,101059.38
2023-03-20T03:31:26.376Z,101067.91
2023-03-20T03:36:41.670Z,101079.94
2023-03-20T03:41:52.577Z,101070.84
2023-03-20T03:47:06.714Z,101075.63
2023-03-20T03:52:23.346Z,101078.72
2023-03-20T03:57:33.523Z,101063.28
2023-03-20T04:02:36.416Z,101040.53
2023-03-20T04:07:39.476Z,101044.78
2023-03-20T04:12:45.269Z,101070.78
2023-03-20T04:17:47.793Z,101046.94
2023-03-20T04:22:50.080Z,101062.13
2023-03-20T04:27:52.668Z,101036.97
2023-03-20T04:32:54.744Z,101054.59
2023-03-20T04:37:56.886Z,101079.44
2023-03-20T04:42:59.062Z,101042.47
2023-03-20T04:48:01.380Z,101076.09
2023-03-20T04:53:03.524Z,101081.22
2023-03-20T04:58:06.145Z,101079.78
2023-03-20T05:03:09.219Z,101052.22
2023-03-20T05:08:11.514Z,101091.56
2023-03-20T05:13:14.269Z,101077.03
2023-03-20T05:18:17.230Z,101080.66
2023-03-20T05:23:20.257Z,101083.97
2023-03-20T05:28:22.448Z,101085.16
2023-03-20T05:33:24.653Z,101091.41
2023-03-20T05:38:27.719Z,101101.31
2023-03-20T05:43:30.309Z,101086.69
2023-03-20T05:48:32.415Z,101093.25
2023-03-20T05:53:35.189Z,101080.84
2023-03-20T05:58:37.371Z,101090.59
2023-03-20T06:03:39.571Z,101076.22
2023-03-20T06:08:42.244Z,101098.72
2023-03-20T06:13:44.417Z,101085.97
2023-03-20T06:18:47.171Z,101081.91
2023-03-20T06:23:49.394Z,101076.63
2023-03-20T06:28:51.870Z,101089.38
2023-03-20T06:33:54.090Z,101085.19
2023-03-20T06:38:57.322Z,101085.31
2023-03-20T06:44:00.047Z,101091.84
2023-03-20T06:49:03.109Z,101089.13
2023-03-20T06:54:06.050Z,101105.25
2023-03-20T06:59:08.265Z,101069.47
2023-03-20T07:04:11.050Z,101097.25
2023-03-20T07:09:13.287Z,101090.56
2023-03-20T07:14:15.905Z,101063.81
2023-03-20T07:19:19.777Z,101087.34
2023-03-20T07:24:22.295Z,101082.88
2023-03-20T07:29:24.540Z,101083.41
2023-03-20T07:34:27.067Z,101084.53
2023-03-20T07:39:30.055Z,101068.34
2023-03-20T07:44:33.017Z,101104.78
2023-03-20T07:49:35.664Z,101091.38
2023-03-20T07:54:37.801Z,101087.69
2023-03-20T07:59:40.023Z,101089.28
2023-03-20T08:04:43.864Z,101075.31
2023-03-20T08:09:46.822Z,101071.75
2023-03-20T08:14:49.063Z,101084.16
2023-03-20T08:19:51.989Z,101060.19
2023-03-20T08:24:54.135Z,101082.06
2023-03-20T08:29:56.934Z,101056.66
2023-03-20T08:35:00.005Z,101074.00
2023-03-20T08:40:02.335Z,101059.03
2023-03-20T08:45:05.137Z,101066.16
2023-03-20T08:50:07.802Z,101054.88
2023-03-20T08:55:12.362Z,101056.38
2023-03-20T09:00:16.880Z,101055.75
2023-03-20T09:05:19.341Z,101057.84
2023-03-20T09:10:21.645Z,101035.84
2023-03-20T09:15:23.815Z,101035.50
2023-03-20T09:20:26.092Z,101034.00
2023-03-20T09:25:28.260Z,101021.97
2023-03-20T09:30:30.546Z,101017.09
2023-03-20T09:35:32.785Z,100996.13
2023-03-20T09:40:53.182Z,101023.00
2023-03-20T09:46:20.900Z,101016.97
2023-03-20T09:51:36.611Z,101002.16
2023-03-20T09:56:38.988Z,100987.28
2023-03-20T10:01:52.419Z,100995.06
2023-03-20T10:06:55.803Z,100949.97
2023-03-20T10:12:21.092Z,100977.53
2023-03-20T10:17:39.283Z,100976.09
2023-03-20T10:23:04.346Z,100965.16
2023-03-20T10:28:23.550Z,100932.38
2023-03-20T10:33:37.908Z,100943.88
2023-03-20T10:38:58.116Z,100935.56
2023-03-20T10:44:06.239Z,100891.41
2023-03-20T10:49:20.157Z,100917.38
2023-03-20T10:54:30.745Z,100907.53
2023-03-20T10:59:39.241Z,100901.88
2023-03-20T11:04:41.654Z,100890.38
2023-03-20T11:09:43.926Z,100869.06
2023-03-20T11:14:46.601Z,100866.00
2023-03-20T11:19:51.838Z,100851.81
2023-03-20T11:25:01.922Z,100844.25
2023-03-20T11:30:07.889Z,100827.22
2023-03-20T11:35:26.533Z,100824.03
2023-03-20T11:40:33.794Z,100804.06
2023-03-20T11:45:46.022Z,100799.94
2023-03-20T11:50:57.314Z,100791.13
2023-03-20T11:56:04.913Z,100779.78
2023-03-20T12:01:13.513Z,100756.41
2023-03-20T12:06:22.092Z,100768.09
2023-03-20T12:11:48.236Z,100760.84
2023-03-20T12:16:56.414Z,100730.84
2023-03-20T12:22:22.628Z,100749.53
2023-03-20T12:27:34.717Z,100731.41
2023-03-20T12:32:43.671Z,100723.72
2023-03-20T12:37:45.999Z,100719.66
2023-03-20T12:42:58.320Z,100700.69
2023-03-20T12:48:34.702Z,100728.22
2023-03-20T12:54:04.384Z,100707.97
2023-03-20T12:59:09.154Z,100696.13
2023-03-20T13:04:25.697Z,100696.81
2023-03-20T13:09:49.450Z,100675.44
2023-03-20T13:14:55.200Z,100671.06
2023-03-20T13:20:30.327Z,100680.16
2023-03-20T13:25:57.853Z,100682.88
2023-03-20T13:31:18.231Z,100676.41
2023-03-20T13:36:58.827Z,100661.44
2023-03-20T13:42:06.970Z,100656.47
2023-03-20T13:47:22.378Z,100639.06
2023-03-20T13:52:29.558Z,100634.72
2023-03-20T13:58:07.614Z,100638.91
2023-03-20T14:03:26.541Z,100647.16
2023-03-20T14:08:28.624Z,100634.00
2023-03-20T14:13:31.421Z,100618.69
2023-03-20T14:18:33.752Z,100625.84
2023-03-20T14:23:39.160Z,100616.53
2023-03-20T14:28:58.312Z,100593.50
2023-03-20T14:34:07.540Z,100606.66
2023-03-20T14:39:38.672Z,100568.78
2023-03-20T14:44:59.691Z,100597.50
2023-03-20T14:50:02.005Z,100588.41
2023-03-20T14:55:22.835Z,100585.41
2023-03-20T15:00:33.820Z,100584.84
2023-03-20T15:05:39.192Z,100579.78
2023-03-20T15:10:54.521Z,100562.09
2023-03-20T15:16:16.960Z,100570.66
2023-03-20T15:21:39.300Z,100565.75
2023-03-20T15:26:41.459Z,100575.38
2023-03-20T15:31:43.714Z,100557.06
2023-03-20T15:36:46.439Z,100566.28
2023-03-20T15:41:59.307Z,100577.31
2023-03-20T15:47:10.494Z,100568.91
2023-03-20T15:52:22.198Z,100557.22
2023-03-20T15:57:35.930Z,100566.38
2023-03-20T16:02:38.400Z,100538.19
2023-03-20T16:07:41.353Z,100565.97
2023-03-20T16:12:52.271Z,100567.03
2023-03-20T16:17:58.618Z,100576.94
2023-03-20T16:23:04.369Z,100578.44
2023-03-20T16:28:08.413Z,100582.25
2023-03-20T16:33:16.222Z,100574.53
2023-03-20T16:38:29.588Z,100580.19
2023-03-20T16:43:32.716Z,100582.94
2023-03-20T16:48:39.789Z,100588.03
2023-03-20T16:53:46.669Z,100582.81
2023-03-20T16:58:49.689Z,100574.53
2023-03-20T17:03:57.361Z,100579.84
2023-03-20T17:09:16.233Z,100607.56
2023-03-20T17:14:18.821Z,100592.44
2023-03-20T17:19:21.920Z,100599.97
2023-03-20T17:24:24.126Z,100599.75
2023-03-20T17:29:26.366Z,100597.34
2023-03-20T17:34:29.061Z,100574.31
2023-03-20T17:39:31.232Z,100570.34
2023-03-20T17:44:33.559Z,100566.97
2023-03-20T17:49:36.174Z,100575.66
2023-03-20T17:54:38.305Z,100602.59
2023-03-20T17:59:41.210Z,100574.69
2023-03-20T18:04:43.434Z,100573.13
2023-03-20T18:09:46.570Z,100587.41
2023-03-20T18:14:48.729Z,100590.13
2023-03-20T18:19:50.889Z,100592.28
2023-03-20T18:24:53.218Z,100593.78
2023-03-20T18:29:55.482Z,100570.25
2023-03-20T18:34:57.694Z,100585.34
2023-03-20T18:40:01.293Z,100610.34
2023-03-20T18:45:03.571Z,100564.09
2023-03-20T18:50:07.217Z,100585.47
2023-03-20T18:55:09.593Z,100598.19
2023-03-20T19:00:24.244Z,100615.03
2023-03-20T19:05:28.217Z,100599.94
2023-03-20T19:10:36.583Z,100612.66
2023-03-20T19:15:39.109Z,100618.28
2023-03-20T19:20:43.883Z,100616.03
2023-03-20T19:25:48.706Z,100605.03
2023-03-20T19:30:52.378Z,100619.00
2023-03-20T19:36:02.947Z,100605.91
2023-03-20T19:41:09.148Z,100591.41
2023-03-20T19:46:28.509Z,100624.84
2023-03-20T19:51:39.221Z,100585.41
2023-03-20T19:56:41.404Z,100617.19
2023-03-20T20:01:43.596Z,100633.25
2023-03-20T20:06:47.524Z,100626.59
2023-03-20T20:11:49.768Z,100634.25
2023-03-20T20:16:53.826Z,100616.84
2023-03-20T20:22:20.130Z,100612.72
2023-03-20T20:27:19.186Z,100593.47
2023-03-20T20:32:23.930Z,100598.47
2023-03-20T20:38:10.362Z,100597.56
2023-03-20T20:42:51.932Z,100582.47
2023-03-20T20:47:55.560Z,100598.25
2023-03-20T20:52:59.999Z,100604.94
2023-03-20T20:58:05.007Z,100580.06
2023-03-20T21:03:07.999Z,100586.94
2023-03-20T21:08:10.402Z,100578.66
2023-03-20T21:13:13.215Z,100585.25
2023-03-20T21:18:15.508Z,100580.06
2023-03-20T21:23:18.071Z,100603.16
2023-03-20T21:28:20.648Z,100586.53
2023-03-20T21:33:22.911Z,100610.81
2023-03-20T21:43:48.386Z,100593.78
2023-03-20T21:49:40.159Z,100606.25
2023-03-20T22:11:19.983Z,100577.59
2023-03-20T22:21:42.834Z,100560.38
2023-03-20T22:27:18.696Z,100554.34
2023-03-20T22:32:35.011Z,100546.69
2023-03-20T22:43:15.084Z,100534.88
2023-03-20T22:47:57.010Z,100536.53
2023-03-20T22:52:59.215Z,100554.38
2023-03-20T22:58:08.027Z,100549.56
2023-03-20T23:03:22.317Z,100561.00
2023-03-20T23:08:36.107Z,100552.50
2023-03-20T23:13:41.920Z,100587.78
2023-03-20T23:18:44.854Z,100563.28
2023-03-20T23:23:47.086Z,100538.16
2023-03-20T23:28:53.578Z,100553.72
2023-03-20T23:33:57.775Z,100565.34
2023-03-20T23:38:59.922Z,100562.84
2023-03-20T23:44:02.474Z,100546.47
2023-03-20T23:49:06.105Z,100550.41
2023-03-20T23:54:08.307Z,100523.25
